createdAt,value
2018-01-13T00:02:23.771Z,88.23
2018-01-13T00:04:51.772Z,89.08
2018-01-13T00:07:19.494Z,89.52
2018-01-13T00:09:47.130Z,89.10
2018-01-13T00:12:14.756Z,88.45
2018-01-13T00:14:42.392Z,88.54
2018-01-13T00:17:10.269Z,89.01
2018-01-13T00:19:37.900Z,89.64
2018-01-13T00:22:05.672Z,89.37
2018-01-13T00:24:33.307Z,89.10
2018-01-13T00:27:01.021Z,89.61
2018-01-13T00:29:28.754Z,89.23
2018-01-13T00:31:56.400Z,89.50
2018-01-13T00:34:24.202Z,88.49
2018-01-13T00:36:51.849Z,88.39
2018-01-13T00:39:19.475Z,89.06
2018-01-13T00:41:47.204Z,89.01
2018-01-13T00:44:14.834Z,88.27
2018-01-13T00:46:42.450Z,88.81
2018-01-13T00:49:10.226Z,88.74
2018-01-13T00:51:38.017Z,88.44
2018-01-13T00:54:05.684Z,88.29
2018-01-13T00:56:33.317Z,88.74
2018-01-13T00:59:01.162Z,89.51
2018-01-13T01:01:28.792Z,89.08
2018-01-13T01:03:56.424Z,88.58
2018-01-13T01:06:24.086Z,89.00
2018-01-13T01:08:52.066Z,88.02
2018-01-13T01:11:19.703Z,87.71
2018-01-13T01:13:47.306Z,87.74
2018-01-13T01:16:14.953Z,87.61
2018-01-13T01:18:42.609Z,86.91
2018-01-13T01:21:10.227Z,86.29
2018-01-13T01:23:37.868Z,86.23
2018-01-13T01:26:05.528Z,86.27
2018-01-13T01:28:33.216Z,84.96
2018-01-13T01:31:00.853Z,85.27
2018-01-13T01:33:28.566Z,84.28
2018-01-13T01:35:56.216Z,83.99
2018-01-13T01:38:23.829Z,84.29
2018-01-13T01:40:51.459Z,83.55
2018-01-13T01:43:19.096Z,84.11
2018-01-13T01:45:47.564Z,84.04
2018-01-13T01:48:26.238Z,83.58
2018-01-13T01:50:53.942Z,83.45
2018-01-13T01:53:21.556Z,84.21
2018-01-13T01:55:49.190Z,84.78
2018-01-13T01:58:16.854Z,83.49
2018-01-13T02:00:44.571Z,82.59
2018-01-13T02:03:12.207Z,82.70
2018-01-13T02:05:39.831Z,83.20
2018-01-13T02:08:07.452Z,83.42
2018-01-13T02:10:35.081Z,83.51
2018-01-13T02:13:02.732Z,84.31
2018-01-13T02:15:30.354Z,84.29
2018-01-13T02:17:57.961Z,84.41
2018-01-13T02:20:25.709Z,84.30
2018-01-13T02:22:53.312Z,83.35
2018-01-13T02:25:21.052Z,83.65
2018-01-13T02:27:48.663Z,84.02
2018-01-13T02:30:16.286Z,83.08
2018-01-13T02:32:44.073Z,84.03
2018-01-13T02:35:11.789Z,83.51
2018-01-13T02:37:39.408Z,84.46
2018-01-13T02:40:07.062Z,84.77
2018-01-13T02:42:34.791Z,84.64
2018-01-13T02:45:02.415Z,84.66
2018-01-13T02:47:30.121Z,85.39
2018-01-13T02:49:57.742Z,85.77
2018-01-13T02:52:25.362Z,86.72
2018-01-13T02:54:52.978Z,86.08
2018-01-13T02:57:20.607Z,86.07
2018-01-13T02:59:48.239Z,85.56
2018-01-13T03:02:15.869Z,85.57
2018-01-13T03:04:43.537Z,84.96
2018-01-13T03:07:11.202Z,85.32
2018-01-13T03:09:38.868Z,85.15
2018-01-13T03:12:06.473Z,85.16
2018-01-13T03:14:34.086Z,85.40
2018-01-13T03:17:01.723Z,85.37
2018-01-13T03:19:29.412Z,85.96
2018-01-13T03:21:57.039Z,86.41
2018-01-13T03:24:24.746Z,86.64
2018-01-13T03:26:52.519Z,86.96
2018-01-13T03:29:20.145Z,86.68
2018-01-13T03:31:47.872Z,86.92
2018-01-13T03:34:15.567Z,86.82
2018-01-13T03:36:43.187Z,86.66
2018-01-13T03:39:10.852Z,85.98
2018-01-13T03:41:38.758Z,86.00
2018-01-13T03:44:06.383Z,85.54
2018-01-13T03:46:34.039Z,85.25
2018-01-13T03:49:01.887Z,85.37
2018-01-13T03:51:29.549Z,85.07
2018-01-13T03:53:57.152Z,84.91
2018-01-13T03:56:24.937Z,85.41
2018-01-13T03:58:52.568Z,85.18
2018-01-13T04:01:20.279Z,85.17
2018-01-13T04:03:47.913Z,85.17
2018-01-13T04:06:15.547Z,85.09
2018-01-13T04:08:43.194Z,85.21
2018-01-13T04:11:10.835Z,85.24
2018-01-13T04:13:38.459Z,85.61
2018-01-13T04:16:06.132Z,85.62
2018-01-13T04:18:33.858Z,85.84
2018-01-13T04:21:01.500Z,85.50
2018-01-13T04:23:29.098Z,85.83
2018-01-13T04:25:56.708Z,85.23
2018-01-13T04:28:24.482Z,85.20
2018-01-13T04:30:52.102Z,85.27
2018-01-13T04:33:19.719Z,85.46
2018-01-13T04:35:47.332Z,85.44
2018-01-13T04:38:14.949Z,85.42
2018-01-13T04:40:42.706Z,85.54
2018-01-13T04:43:10.344Z,85.40
2018-01-13T04:45:37.981Z,85.44
2018-01-13T04:48:05.668Z,85.75
2018-01-13T04:50:33.457Z,85.32
2018-01-13T04:53:01.253Z,85.58
2018-01-13T04:55:28.897Z,85.75
2018-01-13T04:57:56.518Z,85.28
2018-01-13T05:00:24.162Z,85.66
2018-01-13T05:02:51.805Z,85.78
2018-01-13T05:05:19.503Z,85.20
2018-01-13T05:07:47.123Z,84.90
2018-01-13T05:10:14.769Z,84.23
2018-01-13T05:12:42.403Z,83.34
2018-01-13T05:15:10.044Z,83.47
2018-01-13T05:17:37.673Z,84.10
2018-01-13T05:20:05.303Z,83.70
2018-01-13T05:22:32.949Z,84.28
2018-01-13T05:25:00.602Z,84.29
2018-01-13T05:27:28.209Z,84.64
2018-01-13T05:29:55.832Z,84.47
2018-01-13T05:32:23.482Z,85.42
2018-01-13T05:34:51.099Z,85.48
2018-01-13T05:37:18.709Z,85.74
2018-01-13T05:39:46.339Z,85.79
2018-01-13T05:42:13.965Z,86.05
2018-01-13T05:44:41.565Z,86.67
2018-01-13T05:47:09.248Z,86.53
2018-01-13T05:49:36.897Z,87.28
2018-01-13T05:52:04.581Z,87.03
2018-01-13T05:54:32.229Z,87.02
2018-01-13T05:56:59.857Z,87.16
2018-01-13T05:59:27.522Z,87.96
2018-01-13T06:01:55.123Z,88.00
2018-01-13T06:04:22.788Z,88.24
2018-01-13T06:06:50.419Z,87.79
2018-01-13T06:09:18.058Z,87.44
2018-01-13T06:11:45.839Z,87.17
2018-01-13T06:14:13.459Z,87.05
2018-01-13T06:16:41.200Z,86.84
2018-01-13T06:19:08.964Z,87.01
2018-01-13T06:21:36.570Z,87.11
2018-01-13T06:24:04.216Z,87.96
2018-01-13T06:26:31.824Z,88.98
2018-01-13T06:28:59.458Z,88.86
2018-01-13T06:31:27.067Z,89.17
2018-01-13T06:33:54.695Z,89.20
2018-01-13T06:36:22.849Z,89.17
2018-01-13T06:38:50.629Z,88.46
2018-01-13T06:41:18.312Z,88.75
2018-01-13T06:43:45.945Z,88.51
2018-01-13T06:46:13.602Z,87.73
2018-01-13T06:48:41.303Z,87.96
2018-01-13T06:51:08.974Z,87.61
2018-01-13T06:53:36.597Z,87.72
2018-01-13T06:56:04.229Z,87.35
2018-01-13T06:58:31.839Z,87.40
2018-01-13T07:00:59.552Z,87.21
2018-01-13T07:03:27.199Z,87.49
2018-01-13T07:05:54.919Z,87.00
2018-01-13T07:08:22.519Z,88.10
2018-01-13T07:10:50.240Z,88.43
2018-01-13T07:13:17.890Z,88.05
2018-01-13T07:15:45.624Z,86.86
2018-01-13T07:18:13.267Z,85.68
2018-01-13T07:20:40.913Z,87.08
2018-01-13T07:23:08.555Z,88.26
2018-01-13T07:25:36.191Z,89.09
2018-01-13T07:28:03.809Z,89.03
2018-01-13T07:30:31.448Z,88.37
2018-01-13T07:32:59.258Z,87.97
2018-01-13T07:35:26.897Z,87.67
2018-01-13T07:37:54.529Z,88.01
2018-01-13T07:40:22.173Z,88.26
2018-01-13T07:42:49.899Z,88.41
2018-01-13T07:45:17.523Z,88.24
2018-01-13T07:47:45.171Z,88.33
2018-01-13T07:50:12.828Z,88.19
2018-01-13T07:52:40.506Z,87.96
2018-01-13T07:55:08.141Z,87.57
2018-01-13T07:57:35.929Z,87.98
2018-01-13T08:00:03.580Z,87.38
2018-01-13T08:02:31.313Z,87.91
2018-01-13T08:04:58.929Z,87.60
2018-01-13T08:07:26.620Z,87.33
2018-01-13T08:09:54.596Z,86.70
2018-01-13T08:12:22.404Z,87.04
2018-01-13T08:14:50.077Z,87.25
2018-01-13T08:17:19.745Z,87.29
2018-01-13T08:19:47.386Z,85.66
2018-01-13T08:22:15.029Z,86.00
2018-01-13T08:24:42.748Z,85.97
2018-01-13T08:27:10.373Z,86.29
2018-01-13T08:29:38.294Z,85.60
2018-01-13T08:32:05.930Z,85.53
2018-01-13T08:34:33.558Z,85.55
2018-01-13T08:37:01.178Z,85.18
2018-01-13T08:39:28.807Z,84.82
2018-01-13T08:41:56.417Z,84.67
2018-01-13T08:44:24.033Z,84.05
2018-01-13T08:46:51.653Z,83.88
2018-01-13T08:49:19.274Z,84.02
2018-01-13T08:51:46.998Z,83.60
2018-01-13T08:54:14.602Z,83.50
2018-01-13T08:56:42.224Z,83.07
2018-01-13T08:59:09.875Z,83.71
2018-01-13T09:04:44.254Z,83.33
2018-01-13T09:07:11.979Z,83.90
2018-01-13T09:09:39.739Z,83.67
2018-01-13T09:12:07.404Z,84.00
2018-01-13T09:14:35.038Z,83.57
2018-01-13T09:17:02.671Z,83.64
2018-01-13T09:19:30.460Z,84.21
2018-01-13T09:21:58.275Z,83.84
2018-01-13T09:24:25.880Z,84.18
2018-01-13T09:26:53.514Z,83.96
2018-01-13T09:29:21.209Z,84.30
2018-01-13T09:31:48.849Z,84.43
2018-01-13T09:34:16.505Z,84.43
2018-01-13T09:36:44.336Z,84.32
2018-01-13T09:39:11.975Z,84.05
2018-01-13T09:41:39.606Z,84.48
2018-01-13T09:44:07.234Z,84.98
2018-01-13T09:46:34.957Z,84.80
2018-01-13T09:49:02.594Z,85.00
2018-01-13T09:51:30.309Z,85.06
2018-01-13T09:53:58.014Z,85.58
2018-01-13T09:56:25.658Z,85.11
2018-01-13T09:58:53.345Z,84.83
2018-01-13T10:01:20.986Z,85.03
2018-01-13T10:03:48.607Z,84.12
2018-01-13T10:06:16.239Z,84.14
2018-01-13T10:08:44.148Z,84.56
2018-01-13T10:11:11.845Z,84.73
2018-01-13T10:13:39.563Z,84.56
2018-01-13T10:16:07.231Z,84.19
2018-01-13T10:18:34.839Z,84.28
2018-01-13T10:21:02.625Z,84.37
2018-01-13T10:23:30.248Z,84.58
2018-01-13T10:25:57.974Z,84.10
2018-01-13T10:28:25.648Z,84.24
2018-01-13T10:30:53.255Z,84.41
2018-01-13T10:33:21.008Z,84.43
2018-01-13T10:35:48.737Z,83.55
2018-01-13T10:38:16.365Z,83.63
2018-01-13T10:40:44.034Z,84.54
2018-01-13T10:43:11.715Z,84.25
2018-01-13T10:45:39.493Z,84.97
2018-01-13T10:48:07.183Z,84.28
2018-01-13T10:50:34.815Z,83.74
2018-01-13T10:53:02.485Z,83.08
2018-01-13T10:55:30.118Z,83.03
2018-01-13T10:57:57.785Z,80.67
2018-01-13T11:00:25.459Z,79.94
2018-01-13T11:02:53.138Z,79.86
2018-01-13T11:05:20.744Z,79.52
2018-01-13T11:07:48.644Z,79.20
2018-01-13T11:10:16.274Z,79.55
2018-01-13T11:12:43.953Z,79.27
2018-01-13T11:15:11.619Z,79.30
2018-01-13T11:17:39.380Z,79.65
2018-01-13T11:20:06.998Z,79.46
2018-01-13T11:22:34.634Z,80.23
2018-01-13T11:25:02.275Z,79.34
2018-01-13T11:27:29.921Z,79.68
2018-01-13T11:29:57.606Z,79.12
2018-01-13T11:32:25.454Z,79.07
2018-01-13T11:34:53.158Z,79.43
2018-01-13T11:37:20.785Z,79.19
2018-01-13T11:39:48.659Z,79.47
2018-01-13T11:42:16.429Z,79.25
2018-01-13T11:44:44.165Z,79.01
2018-01-13T11:47:11.980Z,79.32
2018-01-13T11:49:39.624Z,80.32
2018-01-13T11:52:07.280Z,79.95
2018-01-13T11:54:34.910Z,79.54
2018-01-13T11:57:02.555Z,79.27
2018-01-13T11:59:30.290Z,79.71
2018-01-13T12:01:57.908Z,79.85
2018-01-13T12:04:25.730Z,80.45
2018-01-13T12:06:53.371Z,80.29
2018-01-13T12:09:21.019Z,80.65
2018-01-13T12:11:48.821Z,81.35
2018-01-13T12:14:16.436Z,80.48
2018-01-13T12:16:44.080Z,80.50
2018-01-13T12:19:11.696Z,80.78
2018-01-13T12:21:39.342Z,80.30
2018-01-13T12:24:06.966Z,80.91
2018-01-13T12:26:34.594Z,80.58
2018-01-13T12:29:02.241Z,81.21
2018-01-13T12:31:29.874Z,80.80
2018-01-13T12:33:57.545Z,80.97
2018-01-13T12:36:25.156Z,80.93
2018-01-13T12:38:52.862Z,80.86
2018-01-13T12:41:20.606Z,81.14
2018-01-13T12:43:48.231Z,80.80
2018-01-13T12:46:15.874Z,80.08
2018-01-13T12:48:43.584Z,80.69
2018-01-13T12:51:11.369Z,80.41
2018-01-13T12:53:39.058Z,79.71
2018-01-13T12:56:06.911Z,79.38
2018-01-13T12:58:34.564Z,79.61
2018-01-13T13:01:02.290Z,79.56
2018-01-13T13:03:29.935Z,80.26
2018-01-13T13:05:57.596Z,79.86
2018-01-13T13:08:25.271Z,80.29
2018-01-13T13:10:52.976Z,79.62
2018-01-13T13:13:20.736Z,80.19
2018-01-13T13:15:48.365Z,80.11
2018-01-13T13:18:16.006Z,80.31
2018-01-13T13:20:43.704Z,80.24
2018-01-13T13:23:11.457Z,79.60
2018-01-13T13:25:39.230Z,80.25
2018-01-13T13:28:06.930Z,79.28
2018-01-13T13:30:34.819Z,78.89
2018-01-13T13:33:02.570Z,80.09
2018-01-13T13:35:30.200Z,80.00
2018-01-13T13:37:57.947Z,80.67
2018-01-13T13:40:25.610Z,79.89
2018-01-13T13:42:53.239Z,80.67
2018-01-13T13:45:20.860Z,80.39
2018-01-13T13:47:48.758Z,79.31
2018-01-13T13:50:16.433Z,78.70
2018-01-13T13:52:44.094Z,78.85
2018-01-13T13:55:11.817Z,78.32
2018-01-13T13:57:39.455Z,78.19
2018-01-13T14:00:07.265Z,78.48
2018-01-13T14:02:34.936Z,76.59
2018-01-13T14:05:02.725Z,77.44
2018-01-13T14:07:30.530Z,76.49
2018-01-13T14:10:01.147Z,77.90
2018-01-13T14:12:26.072Z,77.76
2018-01-13T14:14:53.820Z,77.81
2018-01-13T14:17:21.602Z,77.92
2018-01-13T14:19:49.361Z,78.32
2018-01-13T14:22:17.052Z,78.94
2018-01-13T14:24:44.696Z,79.42
2018-01-13T14:27:12.340Z,79.19
2018-01-13T14:29:40.071Z,77.12
2018-01-13T14:32:07.790Z,77.36
2018-01-13T14:34:35.426Z,77.06
2018-01-13T14:37:03.156Z,78.06
2018-01-13T14:39:30.809Z,78.45
2018-01-13T14:41:58.430Z,78.23
2018-01-13T14:44:26.172Z,78.89
2018-01-13T14:46:53.900Z,79.22
2018-01-13T14:49:21.560Z,78.75
2018-01-13T14:51:49.180Z,79.01
2018-01-13T14:54:16.834Z,79.22
2018-01-13T14:56:44.454Z,79.55
2018-01-13T14:59:12.265Z,78.73
2018-01-13T15:01:40.008Z,78.03
2018-01-13T15:04:07.645Z,79.19
2018-01-13T15:06:35.289Z,79.65
2018-01-13T15:09:03.105Z,80.19
2018-01-13T15:11:30.723Z,80.11
2018-01-13T15:13:58.381Z,80.36
2018-01-13T15:16:26.121Z,80.33
2018-01-13T15:18:53.759Z,80.43
2018-01-13T15:21:21.421Z,80.64
2018-01-13T15:23:49.186Z,81.33
2018-01-13T15:26:16.900Z,80.79
2018-01-13T15:28:44.585Z,80.39
2018-01-13T15:31:12.265Z,79.91
2018-01-13T15:33:39.891Z,80.19
2018-01-13T15:36:07.536Z,79.50
2018-01-13T15:38:35.209Z,79.42
2018-01-13T15:41:02.820Z,80.22
2018-01-13T15:43:30.579Z,80.57
2018-01-13T15:45:58.215Z,80.86
2018-01-13T15:48:25.841Z,80.86
2018-01-13T15:50:53.483Z,79.95
2018-01-13T15:53:21.109Z,80.41
2018-01-13T15:55:48.837Z,80.39
2018-01-13T15:58:16.624Z,79.90
2018-01-13T16:00:44.270Z,79.91
2018-01-13T16:03:11.899Z,81.61
2018-01-13T16:05:39.602Z,82.12
2018-01-13T16:08:07.256Z,81.27
2018-01-13T16:10:34.895Z,80.57
2018-01-13T16:13:02.694Z,81.20
2018-01-13T16:15:30.340Z,79.03
2018-01-13T16:17:58.046Z,80.97
2018-01-13T16:20:25.695Z,80.46
2018-01-13T16:22:54.255Z,81.30
2018-01-13T16:25:21.900Z,81.75
2018-01-13T16:27:49.536Z,81.40
2018-01-13T16:30:17.209Z,81.69
2018-01-13T16:32:44.899Z,81.60
2018-01-13T16:35:12.691Z,80.83
2018-01-13T16:37:40.462Z,80.76
2018-01-13T16:40:08.105Z,81.03
2018-01-13T16:42:35.730Z,81.76
2018-01-13T16:45:03.374Z,82.14
2018-01-13T16:47:31.002Z,82.71
2018-01-13T16:49:58.675Z,82.17
2018-01-13T16:52:26.325Z,82.39
2018-01-13T16:54:53.977Z,82.81
2018-01-13T16:57:21.584Z,82.86
2018-01-13T16:59:49.256Z,81.64
2018-01-13T17:02:16.924Z,82.04
2018-01-13T17:04:44.559Z,82.44
2018-01-13T17:07:12.338Z,82.85
2018-01-13T17:09:39.989Z,83.11
2018-01-13T17:12:07.630Z,82.12
2018-01-13T17:14:35.271Z,82.80
2018-01-13T17:17:02.916Z,82.61
2018-01-13T17:19:30.604Z,81.44
2018-01-13T17:21:58.332Z,81.42
2018-01-13T17:24:25.949Z,81.50
2018-01-13T17:26:53.721Z,81.70
2018-01-13T17:29:21.449Z,81.89
2018-01-13T17:31:49.091Z,80.96
2018-01-13T17:34:16.729Z,81.40
2018-01-13T17:36:44.366Z,80.75
2018-01-13T17:39:12.180Z,81.12
2018-01-13T17:41:39.801Z,80.44
2018-01-13T17:44:07.425Z,79.83
2018-01-13T17:46:35.132Z,80.12
2018-01-13T17:49:02.785Z,80.07
2018-01-13T17:51:30.435Z,79.92
2018-01-13T17:53:58.079Z,79.58
2018-01-13T17:56:25.701Z,80.14
2018-01-13T17:58:53.369Z,78.95
2018-01-13T18:01:21.107Z,79.37
2018-01-13T18:03:48.780Z,79.18
2018-01-13T18:06:16.420Z,79.01
2018-01-13T18:08:44.064Z,79.54
2018-01-13T18:11:11.801Z,78.77
2018-01-13T18:13:39.537Z,78.98
2018-01-13T18:16:07.318Z,78.25
2018-01-13T18:18:34.974Z,78.49
2018-01-13T18:21:02.731Z,78.28
2018-01-13T18:23:30.386Z,77.87
2018-01-13T18:25:58.025Z,77.94
2018-01-13T18:28:25.720Z,78.04
2018-01-13T18:30:53.364Z,78.90
2018-01-13T18:33:21.000Z,78.47
2018-01-13T18:35:48.707Z,78.24
2018-01-13T18:38:16.320Z,77.89
2018-01-13T18:40:44.110Z,78.47
2018-01-13T18:43:11.787Z,78.20
2018-01-13T18:45:39.542Z,78.51
2018-01-13T18:48:07.179Z,78.55
2018-01-13T18:50:34.800Z,78.45
2018-01-13T18:53:02.437Z,78.50
2018-01-13T18:55:30.085Z,77.91
2018-01-13T18:57:57.755Z,78.12
2018-01-13T19:00:25.411Z,77.73
2018-01-13T19:02:53.071Z,77.73
2018-01-13T19:05:20.715Z,78.46
2018-01-13T19:07:48.450Z,78.12
2018-01-13T19:10:16.199Z,78.39
2018-01-13T19:12:43.856Z,78.14
2018-01-13T19:15:11.495Z,78.06
2018-01-13T19:17:39.135Z,78.56
2018-01-13T19:20:06.925Z,78.15
2018-01-13T19:22:34.578Z,78.26
2018-01-13T19:25:02.245Z,77.97
2018-01-13T19:27:29.896Z,78.55
2018-01-13T19:29:57.570Z,78.92
2018-01-13T19:32:25.475Z,78.41
2018-01-13T19:34:53.204Z,78.90
2018-01-13T19:37:20.921Z,78.83
2018-01-13T19:39:48.571Z,78.80
2018-01-13T19:42:16.226Z,79.34
2018-01-13T19:44:43.926Z,78.74
2018-01-13T19:47:11.556Z,78.81
2018-01-13T19:49:39.296Z,78.97
2018-01-13T19:52:07.037Z,78.41
2018-01-13T19:54:34.832Z,78.86
2018-01-13T19:57:02.462Z,77.98
2018-01-13T19:59:30.115Z,79.10
2018-01-13T20:01:57.931Z,79.08
2018-01-13T20:04:25.787Z,79.32
2018-01-13T20:06:53.514Z,79.47
2018-01-13T20:09:21.240Z,79.32
2018-01-13T20:11:48.935Z,79.84
2018-01-13T20:14:16.673Z,79.60
2018-01-13T20:16:44.415Z,80.08
2018-01-13T20:19:12.238Z,79.48
2018-01-13T20:21:39.881Z,79.30
2018-01-13T20:24:07.551Z,79.49
2018-01-13T20:26:35.175Z,80.37
2018-01-13T20:29:02.812Z,80.86
2018-01-13T20:31:30.485Z,81.20
2018-01-13T20:33:58.116Z,79.77
2018-01-13T20:36:25.791Z,80.45
2018-01-13T20:38:53.437Z,79.90
2018-01-13T20:41:21.064Z,80.20
2018-01-13T20:43:48.703Z,80.40
2018-01-13T20:46:16.320Z,80.58
2018-01-13T20:48:44.077Z,80.17
2018-01-13T20:51:11.845Z,80.21
2018-01-13T20:53:39.516Z,80.35
2018-01-13T20:56:07.157Z,80.42
2018-01-13T20:58:34.805Z,80.77
2018-01-13T21:01:02.527Z,80.94
2018-01-13T21:03:30.281Z,81.03
2018-01-13T21:05:58.053Z,81.60
2018-01-13T21:08:25.676Z,81.11
2018-01-13T21:10:53.413Z,80.70
2018-01-13T21:13:21.041Z,81.09
2018-01-13T21:15:48.767Z,81.10
2018-01-13T21:18:16.496Z,81.61
2018-01-13T21:20:44.127Z,81.16
2018-01-13T21:23:11.771Z,81.13
2018-01-13T21:25:39.414Z,80.90
2018-01-13T21:28:07.082Z,80.24
2018-01-13T21:30:34.719Z,80.26
2018-01-13T21:33:02.357Z,80.57
2018-01-13T21:35:30.100Z,81.03
2018-01-13T21:37:57.736Z,80.68
2018-01-13T21:40:25.477Z,80.10
2018-01-13T21:42:53.390Z,79.60
2018-01-13T21:45:21.036Z,80.08
2018-01-13T21:47:48.686Z,80.48
2018-01-13T21:50:16.366Z,80.20
2018-01-13T21:52:44.099Z,79.46
2018-01-13T21:55:11.763Z,79.16
2018-01-13T21:57:39.398Z,78.86
2018-01-13T22:00:07.059Z,79.07
2018-01-13T22:02:34.697Z,79.41
2018-01-13T22:05:02.316Z,78.40
2018-01-13T22:07:29.997Z,79.60
2018-01-13T22:09:57.641Z,79.65
2018-01-13T22:12:25.290Z,79.60
2018-01-13T22:14:52.925Z,79.94
2018-01-13T22:17:20.611Z,80.22
2018-01-13T22:19:48.275Z,79.35
2018-01-13T22:22:15.900Z,79.06
2018-01-13T22:24:43.595Z,79.65
2018-01-13T22:27:11.205Z,78.43
2018-01-13T22:29:38.908Z,79.76
2018-01-13T22:32:06.599Z,79.63
2018-01-13T22:34:34.230Z,79.71
2018-01-13T22:37:01.864Z,79.56
2018-01-13T22:39:29.538Z,79.78
2018-01-13T22:41:57.191Z,79.51
2018-01-13T22:44:24.861Z,79.78
2018-01-13T22:46:52.686Z,80.12
2018-01-13T22:49:20.347Z,79.72
2018-01-13T22:51:48.072Z,80.34
2018-01-13T22:54:15.772Z,80.11
2018-01-13T22:56:43.413Z,80.35
2018-01-13T22:59:11.010Z,80.03
2018-01-13T23:01:38.652Z,80.25
2018-01-13T23:04:06.308Z,80.87
2018-01-13T23:06:33.957Z,80.74
2018-01-13T23:09:01.578Z,80.79
2018-01-13T23:11:29.205Z,81.13
2018-01-13T23:13:56.871Z,81.15
2018-01-13T23:16:24.593Z,81.51
2018-01-13T23:18:52.220Z,81.82
2018-01-13T23:21:19.847Z,81.74
2018-01-13T23:23:47.523Z,82.00
2018-01-13T23:26:15.136Z,81.88
2018-01-13T23:28:42.780Z,82.27
2018-01-13T23:31:10.461Z,82.52
2018-01-13T23:33:38.093Z,82.21
2018-01-13T23:36:05.751Z,82.18
2018-01-13T23:38:33.441Z,81.97
2018-01-13T23:41:01.066Z,81.88
2018-01-13T23:43:28.672Z,82.32
2018-01-13T23:45:56.427Z,81.98
2018-01-13T23:48:24.031Z,82.44
2018-01-13T23:50:51.662Z,81.78
2018-01-13T23:53:19.318Z,81.63
2018-01-13T23:55:46.954Z,81.91
2018-01-13T23:58:14.569Z,81.94
